sensor_id;sensor_type;location;lat;lon;timestamp;pressure;altitude;pressure_sealevel;temperature;humidity
45441;BME280;31189;38.790;-77.084;2024-03-06T00:01:59;101556.86;;;18.40;50.01
45441;BME280;31189;38.790;-77.084;2024-03-06T00:04:25;101556.10;;;17.98;49.96
45441;BME280;31189;38.790;-77.084;2024-03-06T00:06:50;101552.30;;;18.08;50.33
45441;BME280;31189;38.790;-77.084;2024-03-06T00:09:16;101548.50;;;17.79;50.69
45441;BME280;31189;38.790;-77.084;2024-03-06T00:11:42;101544.65;;;17.57;51.03
45441;BME280;31189;38.790;-77.084;2024-03-06T00:14:07;101546.74;;;17.82;51.53
45441;BME280;31189;38.790;-77.084;2024-03-06T00:16:33;101547.62;;;17.58;51.83
45441;BME280;31189;38.790;-77.084;2024-03-06T00:19:00;101549.63;;;17.53;51.98
45441;BME280;31189;38.790;-77.084;2024-03-06T00:21:24;101549.53;;;17.44;51.87
45441;BME280;31189;38.790;-77.084;2024-03-06T00:23:50;101553.07;;;17.73;51.92
45441;BME280;31189;38.790;-77.084;2024-03-06T00:26:15;101553.92;;;17.26;52.89
45441;BME280;31189;38.790;-77.084;2024-03-06T00:28:41;101549.12;;;17.10;53.73
45441;BME280;31189;38.790;-77.084;2024-03-06T00:31:07;101549.45;;;17.09;53.32
45441;BME280;31189;38.790;-77.084;2024-03-06T00:33:32;101552.21;;;16.98;53.71
45441;BME280;31189;38.790;-77.084;2024-03-06T00:35:58;101551.75;;;16.68;54.65
45441;BME280;31189;38.790;-77.084;2024-03-06T00:38:24;101553.61;;;16.71;54.97
45441;BME280;31189;38.790;-77.084;2024-03-06T00:40:49;101552.61;;;16.44;56.14
45441;BME280;31189;38.790;-77.084;2024-03-06T00:43:15;101545.98;;;16.57;56.21
45441;BME280;31189;38.790;-77.084;2024-03-06T00:45:40;101540.19;;;16.35;56.58
45441;BME280;31189;38.790;-77.084;2024-03-06T00:48:07;101541.18;;;16.42;57.17
45441;BME280;31189;38.790;-77.084;2024-03-06T00:50:32;101540.13;;;16.35;56.48
45441;BME280;31189;38.790;-77.084;2024-03-06T00:52:57;101535.89;;;16.54;55.31
45441;BME280;31189;38.790;-77.084;2024-03-06T00:55:23;101535.36;;;16.73;55.56
45441;BME280;31189;38.790;-77.084;2024-03-06T00:57:49;101540.14;;;16.24;55.91
45441;BME280;31189;38.790;-77.084;2024-03-06T01:00:15;101542.52;;;16.70;55.12
45441;BME280;31189;38.790;-77.084;2024-03-06T01:02:48;101544.27;;;16.83;55.20
45441;BME280;31189;38.790;-77.084;2024-03-06T01:05:06;101545.51;;;16.27;55.04
45441;BME280;31189;38.790;-77.084;2024-03-06T01:07:31;101548.36;;;16.87;54.30
45441;BME280;31189;38.790;-77.084;2024-03-06T01:09:57;101549.98;;;16.71;55.18
45441;BME280;31189;38.790;-77.084;2024-03-06T01:12:23;101556.95;;;16.83;54.55
45441;BME280;31189;38.790;-77.084;2024-03-06T01:14:48;101561.15;;;16.67;54.35
45441;BME280;31189;38.790;-77.084;2024-03-06T01:17:14;101558.80;;;16.87;54.05
45441;BME280;31189;38.790;-77.084;2024-03-06T01:19:40;101556.97;;;16.44;54.99
45441;BME280;31189;38.790;-77.084;2024-03-06T01:22:05;101558.05;;;17.08;53.77
45441;BME280;31189;38.790;-77.084;2024-03-06T01:24:31;101557.93;;;17.06;53.39
45441;BME280;31189;38.790;-77.084;2024-03-06T01:26:57;101558.24;;;16.79;53.39
45441;BME280;31189;38.790;-77.084;2024-03-06T01:29:22;101562.35;;;17.02;53.22
45441;BME280;31189;38.790;-77.084;2024-03-06T01:31:48;101566.37;;;16.99;53.39
45441;BME280;31189;38.790;-77.084;2024-03-06T01:34:13;101572.93;;;16.97;53.10
45441;BME280;31189;38.790;-77.084;2024-03-06T01:36:39;101577.47;;;16.51;54.45
45441;BME280;31189;38.790;-77.084;2024-03-06T01:39:06;101574.29;;;16.77;53.70
45441;BME280;31189;38.790;-77.084;2024-03-06T01:41:30;101577.91;;;17.11;53.44
45441;BME280;31189;38.790;-77.084;2024-03-06T01:43:56;101577.70;;;16.62;54.07
45441;BME280;31189;38.790;-77.084;2024-03-06T01:46:21;101580.89;;;16.34;54.65
45441;BME280;31189;38.790;-77.084;2024-03-06T01:48:47;101585.72;;;16.63;53.67
45441;BME280;31189;38.790;-77.084;2024-03-06T01:51:13;101587.17;;;16.53;54.66
45441;BME280;31189;38.790;-77.084;2024-03-06T01:53:39;101590.59;;;15.16;58.85
45441;BME280;31189;38.790;-77.084;2024-03-06T01:56:05;101595.50;;;15.16;58.08
45441;BME280;31189;38.790;-77.084;2024-03-06T01:58:30;101600.37;;;16.46;54.88
45441;BME280;31189;38.790;-77.084;2024-03-06T02:00:56;101600.36;;;16.78;54.31
45441;BME280;31189;38.790;-77.084;2024-03-06T02:03:21;101603.56;;;16.50;54.30
45441;BME280;31189;38.790;-77.084;2024-03-06T02:05:48;101603.57;;;16.16;54.91
45441;BME280;31189;38.790;-77.084;2024-03-06T02:08:12;101594.18;;;16.73;53.38
45441;BME280;31189;38.790;-77.084;2024-03-06T02:10:38;101598.00;;;15.86;55.09
45441;BME280;31189;38.790;-77.084;2024-03-06T02:13:04;101598.93;;;16.55;54.76
45441;BME280;31189;38.790;-77.084;2024-03-06T02:15:29;101602.11;;;16.72;54.80
45441;BME280;31189;38.790;-77.084;2024-03-06T02:17:55;101600.17;;;16.43;55.23
45441;BME280;31189;38.790;-77.084;2024-03-06T02:20:23;101598.49;;;16.32;55.32
45441;BME280;31189;38.790;-77.084;2024-03-06T02:22:46;101596.55;;;16.23;55.54
45441;BME280;31189;38.790;-77.084;2024-03-06T02:25:12;101598.69;;;16.21;55.44
45441;BME280;31189;38.790;-77.084;2024-03-06T02:27:37;101600.66;;;16.24;55.36
45441;BME280;31189;38.790;-77.084;2024-03-06T02:30:03;101606.81;;;16.20;55.45
45441;BME280;31189;38.790;-77.084;2024-03-06T02:32:29;101607.97;;;16.43;55.17
45441;BME280;31189;38.790;-77.084;2024-03-06T02:34:54;101608.19;;;16.39;55.11
45441;BME280;31189;38.790;-77.084;2024-03-06T02:37:20;101609.96;;;16.34;54.99
45441;BME280;31189;38.790;-77.084;2024-03-06T02:39:46;101610.62;;;16.54;54.52
45441;BME280;31189;38.790;-77.084;2024-03-06T02:42:11;101608.87;;;16.04;54.77
45441;BME280;31189;38.790;-77.084;2024-03-06T02:44:37;101608.59;;;16.10;54.54
45441;BME280;31189;38.790;-77.084;2024-03-06T02:47:03;101604.08;;;16.37;54.81
45441;BME280;31189;38.790;-77.084;2024-03-06T02:49:28;101599.07;;;16.22;54.52
45441;BME280;31189;38.790;-77.084;2024-03-06T02:51:54;101606.47;;;16.02;54.74
45441;BME280;31189;38.790;-77.084;2024-03-06T02:54:19;101603.08;;;16.23;54.69
45441;BME280;31189;38.790;-77.084;2024-03-06T02:56:45;101601.65;;;16.24;54.40
45441;BME280;31189;38.790;-77.084;2024-03-06T02:59:10;101602.62;;;16.06;54.26
45441;BME280;31189;38.790;-77.084;2024-03-06T03:01:36;101599.01;;;16.24;54.17
45441;BME280;31189;38.790;-77.084;2024-03-06T03:04:01;101601.68;;;16.31;54.24
45441;BME280;31189;38.790;-77.084;2024-03-06T03:06:27;101605.54;;;15.96;54.14
45441;BME280;31189;38.790;-77.084;2024-03-06T03:08:53;101598.76;;;16.15;54.27
45441;BME280;31189;38.790;-77.084;2024-03-06T03:11:18;101598.93;;;15.83;54.54
45441;BME280;31189;38.790;-77.084;2024-03-06T03:13:44;101593.17;;;15.80;54.83
45441;BME280;31189;38.790;-77.084;2024-03-06T03:16:15;101591.15;;;15.75;54.75
45441;BME280;31189;38.790;-77.084;2024-03-06T03:18:35;101587.42;;;15.77;54.66
45441;BME280;31189;38.790;-77.084;2024-03-06T03:21:01;101585.71;;;16.06;54.69
45441;BME280;31189;38.790;-77.084;2024-03-06T03:23:26;101582.36;;;15.41;55.65
45441;BME280;31189;38.790;-77.084;2024-03-06T03:25:52;101577.80;;;15.58;55.13
45441;BME280;31189;38.790;-77.084;2024-03-06T03:28:18;101580.53;;;15.86;55.19
45441;BME280;31189;38.790;-77.084;2024-03-06T03:30:44;101585.21;;;15.72;55.60
45441;BME280;31189;38.790;-77.084;2024-03-06T03:33:09;101585.94;;;15.26;55.54
45441;BME280;31189;38.790;-77.084;2024-03-06T03:35:34;101586.75;;;15.40;55.65
45441;BME280;31189;38.790;-77.084;2024-03-06T03:38:00;101589.49;;;15.64;55.39
45441;BME280;31189;38.790;-77.084;2024-03-06T03:40:26;101590.46;;;15.81;55.26
45441;BME280;31189;38.790;-77.084;2024-03-06T03:42:51;101594.36;;;15.97;54.89
45441;BME280;31189;38.790;-77.084;2024-03-06T03:45:17;101595.29;;;15.55;54.67
45441;BME280;31189;38.790;-77.084;2024-03-06T03:47:43;101595.80;;;14.80;56.06
45441;BME280;31189;38.790;-77.084;2024-03-06T03:50:09;101594.38;;;15.07;54.85
45441;BME280;31189;38.790;-77.084;2024-03-06T03:52:34;101587.58;;;15.70;54.65
45441;BME280;31189;38.790;-77.084;2024-03-06T03:54:59;101589.67;;;15.59;54.79
45441;BME280;31189;38.790;-77.084;2024-03-06T03:57:25;101590.55;;;15.40;54.95
45441;BME280;31189;38.790;-77.084;2024-03-06T03:59:51;101592.96;;;15.43;54.81
45441;BME280;31189;38.790;-77.084;2024-03-06T04:02:17;101590.60;;;15.46;54.79
45441;BME280;31189;38.790;-77.084;2024-03-06T04:04:42;101586.82;;;15.08;55.19
45441;BME280;31189;38.790;-77.084;2024-03-06T04:07:08;101586.05;;;15.46;55.34
45441;BME280;31189;38.790;-77.084;2024-03-06T04:09:33;101588.74;;;15.26;55.08
45441;BME280;31189;38.790;-77.084;2024-03-06T04:11:59;101585.60;;;15.04;55.57
45441;BME280;31189;38.790;-77.084;2024-03-06T04:14:25;101584.33;;;14.75;56.38
45441;BME280;31189;38.790;-77.084;2024-03-06T04:16:50;101580.18;;;14.33;57.59
45441;BME280;31189;38.790;-77.084;2024-03-06T04:19:16;101581.23;;;14.47;56.98
45441;BME280;31189;38.790;-77.084;2024-03-06T04:21:42;101579.80;;;14.12;58.33
45441;BME280;31189;38.790;-77.084;2024-03-06T04:24:07;101575.38;;;14.18;58.44
45441;BME280;31189;38.790;-77.084;2024-03-06T04:26:33;101572.93;;;14.22;58.62
45441;BME280;31189;38.790;-77.084;2024-03-06T04:28:59;101570.98;;;14.62;57.61
45441;BME280;31189;38.790;-77.084;2024-03-06T04:31:24;101571.19;;;14.98;55.28
45441;BME280;31189;38.790;-77.084;2024-03-06T04:33:50;101564.81;;;14.74;54.97
45441;BME280;31189;38.790;-77.084;2024-03-06T04:36:15;101565.66;;;14.54;56.28
45441;BME280;31189;38.790;-77.084;2024-03-06T04:38:41;101563.21;;;14.62;55.68
45441;BME280;31189;38.790;-77.084;2024-03-06T04:41:07;101554.06;;;13.82;57.80
45441;BME280;31189;38.790;-77.084;2024-03-06T04:43:32;101548.15;;;14.06;58.09
45441;BME280;31189;38.790;-77.084;2024-03-06T04:45:58;101545.49;;;13.69;58.68
45441;BME280;31189;38.790;-77.084;2024-03-06T04:48:23;101542.00;;;14.39;58.20
45441;BME280;31189;38.790;-77.084;2024-03-06T04:50:49;101542.93;;;14.39;57.91
45441;BME280;31189;38.790;-77.084;2024-03-06T04:53:15;101538.30;;;13.79;58.20
45441;BME280;31189;38.790;-77.084;2024-03-06T04:55:40;101535.56;;;13.99;58.54
45441;BME280;31189;38.790;-77.084;2024-03-06T04:58:06;101533.75;;;13.58;59.06
45441;BME280;31189;38.790;-77.084;2024-03-06T05:00:32;101531.99;;;14.44;58.01
45441;BME280;31189;38.790;-77.084;2024-03-06T05:02:57;101525.44;;;14.28;57.18
45441;BME280;31189;38.790;-77.084;2024-03-06T05:05:23;101523.72;;;14.41;57.28
45441;BME280;31189;38.790;-77.084;2024-03-06T05:07:48;101514.72;;;14.34;56.59
45441;BME280;31189;38.790;-77.084;2024-03-06T05:10:14;101514.51;;;14.37;56.94
45441;BME280;31189;38.790;-77.084;2024-03-06T05:12:39;101513.26;;;13.87;57.67
45441;BME280;31189;38.790;-77.084;2024-03-06T05:15:06;101510.95;;;13.84;58.34
45441;BME280;31189;38.790;-77.084;2024-03-06T05:17:32;101509.25;;;14.32;57.45
45441;BME280;31189;38.790;-77.084;2024-03-06T05:19:56;101508.46;;;14.16;57.38
45441;BME280;31189;38.790;-77.084;2024-03-06T05:22:22;101501.10;;;14.32;57.12
45441;BME280;31189;38.790;-77.084;2024-03-06T05:24:48;101501.27;;;14.44;56.74
45441;BME280;31189;38.790;-77.084;2024-03-06T05:27:13;101495.80;;;14.42;56.33
45441;BME280;31189;38.790;-77.084;2024-03-06T05:29:39;101497.95;;;14.55;55.76
45441;BME280;31189;38.790;-77.084;2024-03-06T05:32:05;101492.85;;;14.46;55.88
45441;BME280;31189;38.790;-77.084;2024-03-06T05:34:30;101494.95;;;14.22;55.90
45441;BME280;31189;38.790;-77.084;2024-03-06T05:36:55;101492.39;;;14.31;56.14
45441;BME280;31189;38.790;-77.084;2024-03-06T05:39:21;101484.17;;;14.16;56.81
45441;BME280;31189;38.790;-77.084;2024-03-06T05:41:46;101481.30;;;14.08;56.99
45441;BME280;31189;38.790;-77.084;2024-03-06T05:44:12;101484.38;;;13.84;57.25
45441;BME280;31189;38.790;-77.084;2024-03-06T05:46:38;101489.46;;;14.10;57.18
45441;BME280;31189;38.790;-77.084;2024-03-06T05:49:04;101488.81;;;13.83;57.61
45441;BME280;31189;38.790;-77.084;2024-03-06T05:51:29;101491.40;;;14.16;58.04
45441;BME280;31189;38.790;-77.084;2024-03-06T05:53:55;101494.52;;;13.93;57.99
45441;BME280;31189;38.790;-77.084;2024-03-06T05:56:21;101487.21;;;14.05;57.65
45441;BME280;31189;38.790;-77.084;2024-03-06T05:58:46;101478.50;;;14.61;55.62
45441;BME280;31189;38.790;-77.084;2024-03-06T06:01:12;101469.47;;;14.37;55.61
45441;BME280;31189;38.790;-77.084;2024-03-06T06:03:37;101465.43;;;14.50;55.13
45441;BME280;31189;38.790;-77.084;2024-03-06T06:06:03;101464.23;;;14.58;55.05
45441;BME280;31189;38.790;-77.084;2024-03-06T06:08:28;101462.63;;;14.47;55.38
45441;BME280;31189;38.790;-77.084;2024-03-06T06:10:54;101460.22;;;14.33;55.62
45441;BME280;31189;38.790;-77.084;2024-03-06T06:13:20;101463.21;;;13.84;57.12
45441;BME280;31189;38.790;-77.084;2024-03-06T06:15:45;101466.82;;;14.16;57.08
45441;BME280;31189;38.790;-77.084;2024-03-06T06:18:11;101463.90;;;14.28;57.23
45441;BME280;31189;38.790;-77.084;2024-03-06T06:20:37;101461.83;;;13.53;58.66
45441;BME280;31189;38.790;-77.084;2024-03-06T06:23:03;101460.67;;;13.98;58.87
45441;BME280;31189;38.790;-77.084;2024-03-06T06:25:28;101453.26;;;14.26;57.74
45441;BME280;31189;38.790;-77.084;2024-03-06T06:27:54;101444.79;;;14.49;56.39
45441;BME280;31189;38.790;-77.084;2024-03-06T06:30:19;101438.61;;;14.49;55.22
45441;BME280;31189;38.790;-77.084;2024-03-06T06:32:45;101439.35;;;14.62;56.17
45441;BME280;31189;38.790;-77.084;2024-03-06T06:35:11;101437.67;;;14.39;56.42
45441;BME280;31189;38.790;-77.084;2024-03-06T06:37:36;101439.59;;;14.42;55.69
45441;BME280;31189;38.790;-77.084;2024-03-06T06:40:02;101440.43;;;13.49;58.33
45441;BME280;31189;38.790;-77.084;2024-03-06T06:42:27;101440.57;;;13.48;59.70
45441;BME280;31189;38.790;-77.084;2024-03-06T06:44:53;101437.53;;;14.17;58.71
45441;BME280;31189;38.790;-77.084;2024-03-06T06:47:18;101436.09;;;14.08;58.46
45441;BME280;31189;38.790;-77.084;2024-03-06T06:49:44;101429.08;;;13.78;58.80
45441;BME280;31189;38.790;-77.084;2024-03-06T06:52:10;101429.17;;;13.97;58.52
45441;BME280;31189;38.790;-77.084;2024-03-06T06:54:35;101427.53;;;14.18;57.21
45441;BME280;31189;38.790;-77.084;2024-03-06T06:57:01;101426.18;;;14.32;57.31
45441;BME280;31189;38.790;-77.084;2024-03-06T06:59:27;101424.36;;;13.31;59.52
45441;BME280;31189;38.790;-77.084;2024-03-06T07:01:52;101421.27;;;12.87;62.06
45441;BME280;31189;38.790;-77.084;2024-03-06T07:04:18;101420.89;;;13.45;60.90
45441;BME280;31189;38.790;-77.084;2024-03-06T07:06:44;101418.61;;;13.46;60.24
45441;BME280;31189;38.790;-77.084;2024-03-06T07:09:09;101419.34;;;13.39;61.37
45441;BME280;31189;38.790;-77.084;2024-03-06T07:11:35;101415.68;;;13.57;60.54
45441;BME280;31189;38.790;-77.084;2024-03-06T07:14:01;101410.57;;;13.96;59.43
45441;BME280;31189;38.790;-77.084;2024-03-06T07:16:26;101406.92;;;13.26;59.90
45441;BME280;31189;38.790;-77.084;2024-03-06T07:18:52;101409.47;;;13.88;60.04
45441;BME280;31189;38.790;-77.084;2024-03-06T07:21:17;101409.32;;;14.02;59.18
45441;BME280;31189;38.790;-77.084;2024-03-06T07:23:43;101406.38;;;13.86;58.66
45441;BME280;31189;38.790;-77.084;2024-03-06T07:26:09;101395.52;;;13.66;58.01
45441;BME280;31189;38.790;-77.084;2024-03-06T07:28:34;101386.81;;;14.02;57.63
45441;BME280;31189;38.790;-77.084;2024-03-06T07:31:00;101385.65;;;13.74;57.95
45441;BME280;31189;38.790;-77.084;2024-03-06T07:33:26;101384.64;;;13.87;58.27
45441;BME280;31189;38.790;-77.084;2024-03-06T07:35:51;101375.30;;;14.27;57.86
45441;BME280;31189;38.790;-77.084;2024-03-06T07:38:17;101367.67;;;14.51;57.74
45441;BME280;31189;38.790;-77.084;2024-03-06T07:40:43;101361.43;;;14.47;57.20
45441;BME280;31189;38.790;-77.084;2024-03-06T07:43:08;101356.35;;;14.18;56.99
45441;BME280;31189;38.790;-77.084;2024-03-06T07:45:34;101353.39;;;14.05;57.38
45441;BME280;31189;38.790;-77.084;2024-03-06T07:48:00;101347.97;;;14.54;57.37
45441;BME280;31189;38.790;-77.084;2024-03-06T07:50:25;101345.98;;;13.93;58.93
45441;BME280;31189;38.790;-77.084;2024-03-06T07:52:51;101340.96;;;14.16;58.73
45441;BME280;31189;38.790;-77.084;2024-03-06T07:55:16;101332.43;;;14.60;57.84
45441;BME280;31189;38.790;-77.084;2024-03-06T07:57:42;101334.72;;;14.41;57.41
45441;BME280;31189;38.790;-77.084;2024-03-06T08:00:09;101338.12;;;14.69;57.29
45441;BME280;31189;38.790;-77.084;2024-03-06T08:02:33;101341.24;;;14.28;58.32
45441;BME280;31189;38.790;-77.084;2024-03-06T08:04:59;101339.71;;;14.14;58.82
45441;BME280;31189;38.790;-77.084;2024-03-06T08:07:25;101340.04;;;14.26;58.26
45441;BME280;31189;38.790;-77.084;2024-03-06T08:09:50;101329.35;;;14.51;56.91
45441;BME280;31189;38.790;-77.084;2024-03-06T08:12:16;101327.33;;;14.44;56.37
45441;BME280;31189;38.790;-77.084;2024-03-06T08:14:42;101329.19;;;14.46;56.07
45441;BME280;31189;38.790;-77.084;2024-03-06T08:17:07;101326.47;;;14.23;56.42
45441;BME280;31189;38.790;-77.084;2024-03-06T08:19:33;101322.35;;;14.51;56.79
45441;BME280;31189;38.790;-77.084;2024-03-06T08:21:59;101315.15;;;14.74;56.41
45441;BME280;31189;38.790;-77.084;2024-03-06T08:24:24;101312.66;;;14.48;56.67
45441;BME280;31189;38.790;-77.084;2024-03-06T08:26:50;101317.48;;;14.47;57.35
45441;BME280;31189;38.790;-77.084;2024-03-06T08:29:15;101318.43;;;14.19;58.38
45441;BME280;31189;38.790;-77.084;2024-03-06T08:31:41;101331.34;;;14.39;58.70
45441;BME280;31189;38.790;-77.084;2024-03-06T08:34:06;101330.29;;;14.47;57.82
45441;BME280;31189;38.790;-77.084;2024-03-06T08:36:32;101325.73;;;14.66;57.76
45441;BME280;31189;38.790;-77.084;2024-03-06T08:38:58;101325.40;;;14.66;58.04
45441;BME280;31189;38.790;-77.084;2024-03-06T08:41:23;101318.21;;;13.53;62.01
45441;BME280;31189;38.790;-77.084;2024-03-06T08:43:49;101309.27;;;13.73;61.52
45441;BME280;31189;38.790;-77.084;2024-03-06T08:46:15;101314.65;;;14.25;60.17
45441;BME280;31189;38.790;-77.084;2024-03-06T08:48:40;101320.72;;;14.04;60.39
45441;BME280;31189;38.790;-77.084;2024-03-06T08:51:06;101318.04;;;14.03;60.23
45441;BME280;31189;38.790;-77.084;2024-03-06T08:53:32;101303.38;;;14.68;59.93
45441;BME280;31189;38.790;-77.084;2024-03-06T08:55:57;101302.72;;;14.50;59.78
45441;BME280;31189;38.790;-77.084;2024-03-06T08:58:23;101313.55;;;14.62;59.81
45441;BME280;31189;38.790;-77.084;2024-03-06T09:00:49;101329.79;;;14.93;58.90
45441;BME280;31189;38.790;-77.084;2024-03-06T09:03:14;101334.52;;;14.79;58.73
45441;BME280;31189;38.790;-77.084;2024-03-06T09:05:40;101327.27;;;14.97;58.08
45441;BME280;31189;38.790;-77.084;2024-03-06T09:08:06;101321.80;;;14.95;58.04
45441;BME280;31189;38.790;-77.084;2024-03-06T09:10:31;101314.47;;;15.35;57.92
45441;BME280;31189;38.790;-77.084;2024-03-06T09:12:57;101314.58;;;15.14;57.76
45441;BME280;31189;38.790;-77.084;2024-03-06T09:15:23;101321.64;;;15.16;58.30
45441;BME280;31189;38.790;-77.084;2024-03-06T09:17:49;101329.88;;;14.82;58.15
45441;BME280;31189;38.790;-77.084;2024-03-06T09:20:14;101331.94;;;15.61;57.71
45441;BME280;31189;38.790;-77.084;2024-03-06T09:22:40;101330.27;;;15.27;58.27
45441;BME280;31189;38.790;-77.084;2024-03-06T09:25:06;101333.80;;;15.17;57.57
45441;BME280;31189;38.790;-77.084;2024-03-06T09:27:31;101334.41;;;15.52;56.76
45441;BME280;31189;38.790;-77.084;2024-03-06T09:29:56;101336.60;;;15.35;56.31
45441;BME280;31189;38.790;-77.084;2024-03-06T09:32:22;101335.31;;;15.86;56.28
45441;BME280;31189;38.790;-77.084;2024-03-06T09:34:48;101332.47;;;15.35;56.48
45441;BME280;31189;38.790;-77.084;2024-03-06T09:37:13;101330.95;;;15.61;57.77
45441;BME280;31189;38.790;-77.084;2024-03-06T09:39:39;101323.40;;;15.89;57.32
45441;BME280;31189;38.790;-77.084;2024-03-06T09:42:05;101324.33;;;15.66;57.24
45441;BME280;31189;38.790;-77.084;2024-03-06T09:44:30;101324.10;;;15.46;57.26
45441;BME280;31189;38.790;-77.084;2024-03-06T09:46:59;101324.49;;;15.70;56.71
45441;BME280;31189;38.790;-77.084;2024-03-06T09:49:22;101328.47;;;15.49;56.75
45441;BME280;31189;38.790;-77.084;2024-03-06T09:51:48;101331.70;;;15.76;56.90
45441;BME280;31189;38.790;-77.084;2024-03-06T09:54:13;101331.49;;;15.56;57.49
45441;BME280;31189;38.790;-77.084;2024-03-06T09:56:38;101328.59;;;15.70;57.66
45441;BME280;31189;38.790;-77.084;2024-03-06T09:59:04;101334.20;;;15.80;57.46
45441;BME280;31189;38.790;-77.084;2024-03-06T10:01:30;101340.85;;;15.67;56.64
45441;BME280;31189;38.790;-77.084;2024-03-06T10:03:55;101343.85;;;15.56;56.81
45441;BME280;31189;38.790;-77.084;2024-03-06T10:06:20;101338.11;;;15.51;56.67
45441;BME280;31189;38.790;-77.084;2024-03-06T10:08:46;101340.43;;;15.46;57.09
45441;BME280;31189;38.790;-77.084;2024-03-06T10:11:12;101344.81;;;15.58;57.62
45441;BME280;31189;38.790;-77.084;2024-03-06T10:13:37;101347.94;;;15.62;57.47
45441;BME280;31189;38.790;-77.084;2024-03-06T10:16:04;101343.18;;;15.60;57.26
45441;BME280;31189;38.790;-77.084;2024-03-06T10:18:29;101342.46;;;15.87;56.87
45441;BME280;31189;38.790;-77.084;2024-03-06T10:20:54;101349.12;;;16.19;56.85
45441;BME280;31189;38.790;-77.084;2024-03-06T10:23:19;101357.48;;;15.12;59.33
45441;BME280;31189;38.790;-77.084;2024-03-06T10:25:46;101357.26;;;16.03;56.37
45441;BME280;31189;38.790;-77.084;2024-03-06T10:28:11;101343.26;;;15.82;55.48
45441;BME280;31189;38.790;-77.084;2024-03-06T10:30:37;101338.95;;;16.12;56.43
45441;BME280;31189;38.790;-77.084;2024-03-06T10:33:03;101345.40;;;15.79;57.06
45441;BME280;31189;38.790;-77.084;2024-03-06T10:35:27;101346.18;;;16.00;57.61
45441;BME280;31189;38.790;-77.084;2024-03-06T10:37:54;101345.51;;;15.91;57.78
45441;BME280;31189;38.790;-77.084;2024-03-06T10:40:18;101350.37;;;15.80;58.45
45441;BME280;31189;38.790;-77.084;2024-03-06T10:42:45;101348.12;;;15.73;58.04
45441;BME280;31189;38.790;-77.084;2024-03-06T10:45:13;101340.71;;;15.73;57.99
45441;BME280;31189;38.790;-77.084;2024-03-06T10:47:35;101341.72;;;15.37;59.34
45441;BME280;31189;38.790;-77.084;2024-03-06T10:50:03;101342.05;;;15.44;60.00
45441;BME280;31189;38.790;-77.084;2024-03-06T10:52:27;101332.29;;;15.91;59.42
45441;BME280;31189;38.790;-77.084;2024-03-06T10:54:52;101321.76;;;16.05;58.93
45441;BME280;31189;38.790;-77.084;2024-03-06T10:57:19;101325.16;;;15.81;58.74
45441;BME280;31189;38.790;-77.084;2024-03-06T10:59:44;101331.01;;;15.96;57.71
45441;BME280;31189;38.790;-77.084;2024-03-06T11:02:10;101330.37;;;16.27;57.44
45441;BME280;31189;38.790;-77.084;2024-03-06T11:04:34;101322.64;;;16.26;57.06
45441;BME280;31189;38.790;-77.084;2024-03-06T11:07:00;101315.73;;;16.36;57.20
45441;BME280;31189;38.790;-77.084;2024-03-06T11:09:25;101324.65;;;16.38;57.33
45441;BME280;31189;38.790;-77.084;2024-03-06T11:11:51;101345.36;;;14.31;64.32
45441;BME280;31189;38.790;-77.084;2024-03-06T11:14:16;101343.79;;;16.20;58.67
45441;BME280;31189;38.790;-77.084;2024-03-06T11:19:08;101339.30;;;16.50;57.93
45441;BME280;31189;38.790;-77.084;2024-03-06T11:21:33;101336.15;;;16.44;58.18
45441;BME280;31189;38.790;-77.084;2024-03-06T11:24:14;101334.29;;;16.32;58.54
45441;BME280;31189;38.790;-77.084;2024-03-06T11:26:24;101330.26;;;16.38;58.63
45441;BME280;31189;38.790;-77.084;2024-03-06T11:28:50;101325.52;;;15.75;59.85
45441;BME280;31189;38.790;-77.084;2024-03-06T11:31:16;101328.21;;;16.50;59.19
45441;BME280;31189;38.790;-77.084;2024-03-06T11:33:43;101324.35;;;16.47;58.31
45441;BME280;31189;38.790;-77.084;2024-03-06T11:36:17;101322.10;;;16.02;59.37
45441;BME280;31189;38.790;-77.084;2024-03-06T11:38:32;101325.85;;;16.31;58.84
45441;BME280;31189;38.790;-77.084;2024-03-06T11:40:59;101330.82;;;16.53;58.58
45441;BME280;31189;38.790;-77.084;2024-03-06T11:43:24;101327.44;;;16.69;58.25
45441;BME280;31189;38.790;-77.084;2024-03-06T11:45:49;101333.74;;;16.71;58.12
45441;BME280;31189;38.790;-77.084;2024-03-06T11:48:15;101339.64;;;16.18;58.24
45441;BME280;31189;38.790;-77.084;2024-03-06T11:50:41;101328.22;;;16.67;58.37
45441;BME280;31189;38.790;-77.084;2024-03-06T11:53:07;101323.46;;;16.49;58.42
45441;BME280;31189;38.790;-77.084;2024-03-06T11:55:32;101319.25;;;16.70;58.63
45441;BME280;31189;38.790;-77.084;2024-03-06T11:57:57;101322.65;;;16.63;59.03
45441;BME280;31189;38.790;-77.084;2024-03-06T12:00:23;101328.27;;;16.58;59.63
45441;BME280;31189;38.790;-77.084;2024-03-06T12:02:48;101324.04;;;16.68;59.44
45441;BME280;31189;38.790;-77.084;2024-03-06T12:05:14;101317.21;;;16.56;59.21
45441;BME280;31189;38.790;-77.084;2024-03-06T12:07:46;101310.06;;;16.58;59.12
45441;BME280;31189;38.790;-77.084;2024-03-06T12:10:05;101303.82;;;16.87;59.31
45441;BME280;31189;38.790;-77.084;2024-03-06T12:12:30;101303.59;;;16.82;59.46
45441;BME280;31189;38.790;-77.084;2024-03-06T12:14:58;101305.59;;;16.62;59.47
45441;BME280;31189;38.790;-77.084;2024-03-06T12:17:21;101313.11;;;16.62;59.50
45441;BME280;31189;38.790;-77.084;2024-03-06T12:19:48;101320.47;;;16.78;59.52
45441;BME280;31189;38.790;-77.084;2024-03-06T12:22:12;101325.09;;;16.84;59.01
45441;BME280;31189;38.790;-77.084;2024-03-06T12:24:37;101325.75;;;16.04;60.98